sensor_id;sensor_type;location;lat;lon;timestamp;pressure;altitude;pressure_sealevel;temperature;humidity
22096;BME280;24083;55.670;37.568;2023-05-20T00:00:21;99944.38;;;14.40;nan
22096;BME280;24083;55.670;37.568;2023-05-20T00:02:52;99938.50;;;14.35;nan
22096;BME280;24083;55.670;37.568;2023-05-20T00:08:04;99943.50;;;14.75;nan
22096;BME280;24083;55.670;37.568;2023-05-20T00:10:35;99935.59;;;14.93;nan
22096;BME280;24083;55.670;37.568;2023-05-20T00:16:11;99933.25;;;13.83;nan
22096;BME280;24083;55.670;37.568;2023-05-20T00:18:46;99932.00;;;14.60;nan
22096;BME280;24083;55.670;37.568;2023-05-20T00:21:12;99928.03;;;14.87;nan
22096;BME280;24083;55.670;37.568;2023-05-20T00:23:47;99933.41;;;14.32;nan
22096;BME280;24083;55.670;37.568;2023-05-20T00:26:15;99926.88;;;13.88;nan
22096;BME280;24083;55.670;37.568;2023-05-20T00:28:47;99935.09;;;14.68;nan
22096;BME280;24083;55.670;37.568;2023-05-20T00:31:13;99933.59;;;14.12;nan
22096;BME280;24083;55.670;37.568;2023-05-20T00:33:46;99933.59;;;14.12;nan
22096;BME280;24083;55.670;37.568;2023-05-20T00:36:13;99941.13;;;14.00;nan
22096;BME280;24083;55.670;37.568;2023-05-20T00:38:40;99929.16;;;13.77;nan
22096;BME280;24083;55.670;37.568;2023-05-20T00:41:06;99936.84;;;13.43;nan
22096;BME280;24083;55.670;37.568;2023-05-20T00:43:33;99936.84;;;13.43;nan
22096;BME280;24083;55.670;37.568;2023-05-20T00:48:32;99937.44;;;14.39;nan
22096;BME280;24083;55.670;37.568;2023-05-20T00:51:29;99943.28;;;13.92;nan
22096;BME280;24083;55.670;37.568;2023-05-20T00:53:55;99942.34;;;13.75;nan
22096;BME280;24083;55.670;37.568;2023-05-20T00:56:22;99944.41;;;14.23;nan
22096;BME280;24083;55.670;37.568;2023-05-20T00:58:49;99936.84;;;13.43;nan
22096;BME280;24083;55.670;37.568;2023-05-20T01:01:16;99938.03;;;14.45;nan
22096;BME280;24083;55.670;37.568;2023-05-20T01:03:43;99940.66;;;14.80;nan
22096;BME280;24083;55.670;37.568;2023-05-20T01:06:10;99935.72;;;14.74;nan
22096;BME280;24083;55.670;37.568;2023-05-20T01:08:38;99933.09;;;13.86;nan
22096;BME280;24083;55.670;37.568;2023-05-20T01:11:13;99934.38;;;14.65;nan
22096;BME280;24083;55.670;37.568;2023-05-20T01:14:21;99926.47;;;14.49;nan
22096;BME280;24083;55.670;37.568;2023-05-20T01:16:51;99932.47;;;14.68;nan
22096;BME280;24083;55.670;37.568;2023-05-20T01:19:26;99931.88;;;13.75;nan
22096;BME280;24083;55.670;37.568;2023-05-20T01:21:55;99935.09;;;14.51;nan
22096;BME280;24083;55.670;37.568;2023-05-20T01:24:33;99933.72;;;14.44;nan
22096;BME280;24083;55.670;37.568;2023-05-20T01:27:02;99925.41;;;14.00;nan
22096;BME280;24083;55.670;37.568;2023-05-20T01:29:43;99937.66;;;13.82;nan
22096;BME280;24083;55.670;37.568;2023-05-20T01:35:07;99942.34;;;13.75;nan
22096;BME280;24083;55.670;37.568;2023-05-20T01:40:05;99950.44;;;13.52;nan
22096;BME280;24083;55.670;37.568;2023-05-20T01:45:03;99949.59;;;14.58;nan
22096;BME280;24083;55.670;37.568;2023-05-20T01:49:59;99947.91;;;13.50;nan
22096;BME280;24083;55.670;37.568;2023-05-20T01:52:25;99955.81;;;13.48;nan
22096;BME280;24083;55.670;37.568;2023-05-20T01:54:53;99949.78;;;14.73;nan
22096;BME280;24083;55.670;37.568;2023-05-20T01:57:21;99950.34;;;15.92;nan
22096;BME280;24083;55.670;37.568;2023-05-20T01:59:49;99962.22;;;14.85;nan
22096;BME280;24083;55.670;37.568;2023-05-20T02:02:34;99953.94;;;14.42;nan
22096;BME280;24083;55.670;37.568;2023-05-20T02:05:00;99960.72;;;14.63;nan
22096;BME280;24083;55.670;37.568;2023-05-20T02:07:40;99956.63;;;15.09;nan
22096;BME280;24083;55.670;37.568;2023-05-20T02:10:08;99949.84;;;15.37;nan
22096;BME280;24083;55.670;37.568;2023-05-20T02:15:25;99953.56;;;15.01;nan
22096;BME280;24083;55.670;37.568;2023-05-20T02:21:05;99956.88;;;14.35;nan
22096;BME280;24083;55.670;37.568;2023-05-20T02:23:31;99959.91;;;13.35;nan
22096;BME280;24083;55.670;37.568;2023-05-20T02:25:57;99955.16;;;13.99;nan
22096;BME280;24083;55.670;37.568;2023-05-20T02:28:24;99949.66;;;13.49;nan
22096;BME280;24083;55.670;37.568;2023-05-20T02:30:53;99951.78;;;13.97;nan
22096;BME280;24083;55.670;37.568;2023-05-20T02:33:19;99951.63;;;14.71;nan
22096;BME280;24083;55.670;37.568;2023-05-20T02:35:47;99948.69;;;14.42;nan
22096;BME280;24083;55.670;37.568;2023-05-20T02:40:47;99959.25;;;14.05;nan
22096;BME280;24083;55.670;37.568;2023-05-20T02:43:32;99949.19;;;15.33;nan
22096;BME280;24083;55.670;37.568;2023-05-20T02:46:01;99960.25;;;14.37;nan
22096;BME280;24083;55.670;37.568;2023-05-20T02:48:29;99967.34;;;13.63;nan
22096;BME280;24083;55.670;37.568;2023-05-20T02:50:54;99964.44;;;14.24;nan
22096;BME280;24083;55.670;37.568;2023-05-20T02:55:53;99957.66;;;15.22;nan
22096;BME280;24083;55.670;37.568;2023-05-20T02:58:21;99956.03;;;13.80;nan
22096;BME280;24083;55.670;37.568;2023-05-20T03:03:51;99963.72;;;15.07;nan
22096;BME280;24083;55.670;37.568;2023-05-20T03:06:17;99963.44;;;13.53;nan
22096;BME280;24083;55.670;37.568;2023-05-20T03:08:48;99961.41;;;13.97;nan
22096;BME280;24083;55.670;37.568;2023-05-20T03:11:16;99957.03;;;14.32;nan
22096;BME280;24083;55.670;37.568;2023-05-20T03:13:42;99962.47;;;13.56;nan
22096;BME280;24083;55.670;37.568;2023-05-20T03:16:10;99959.59;;;14.85;nan
22096;BME280;24083;55.670;37.568;2023-05-20T03:18:37;99968.22;;;14.36;nan
22096;BME280;24083;55.670;37.568;2023-05-20T03:21:16;99961.16;;;14.89;nan
22096;BME280;24083;55.670;37.568;2023-05-20T03:23:44;99969.38;;;14.30;nan
22096;BME280;24083;55.670;37.568;2023-05-20T03:26:10;99954.78;;;15.75;nan
22096;BME280;24083;55.670;37.568;2023-05-20T03:28:36;99968.66;;;14.62;nan
22096;BME280;24083;55.670;37.568;2023-05-20T03:31:02;99978.72;;;13.05;nan
22096;BME280;24083;55.670;37.568;2023-05-20T03:33:42;99972.84;;;13.38;nan
22096;BME280;24083;55.670;37.568;2023-05-20T03:39:18;99968.56;;;13.93;nan
22096;BME280;24083;55.670;37.568;2023-05-20T03:41:44;99972.00;;;14.48;nan
22096;BME280;24083;55.670;37.568;2023-05-20T03:44:11;99966.88;;;14.62;nan
22096;BME280;24083;55.670;37.568;2023-05-20T03:49:10;99961.19;;;14.54;nan
22096;BME280;24083;55.670;37.568;2023-05-20T03:51:35;99960.94;;;14.06;nan
22096;BME280;24083;55.670;37.568;2023-05-20T03:54:10;99961.97;;;14.74;nan
22096;BME280;24083;55.670;37.568;2023-05-20T03:56:44;99968.66;;;15.13;nan
22096;BME280;24083;55.670;37.568;2023-05-20T04:04:57;99967.41;;;14.87;nan
22096;BME280;24083;55.670;37.568;2023-05-20T04:07:26;99970.13;;;14.50;nan
22096;BME280;24083;55.670;37.568;2023-05-20T04:09:57;99970.47;;;14.79;nan
22096;BME280;24083;55.670;37.568;2023-05-20T04:12:29;99960.56;;;14.31;nan
22096;BME280;24083;55.670;37.568;2023-05-20T04:15:02;99967.16;;;15.41;nan
22096;BME280;24083;55.670;37.568;2023-05-20T04:17:32;99960.53;;;16.73;nan
22096;BME280;24083;55.670;37.568;2023-05-20T04:19:59;99950.75;;;17.04;nan
22096;BME280;24083;55.670;37.568;2023-05-20T04:22:26;99965.22;;;14.79;nan
22096;BME280;24083;55.670;37.568;2023-05-20T04:24:52;99962.69;;;16.22;nan
22096;BME280;24083;55.670;37.568;2023-05-20T04:29:49;99968.81;;;15.10;nan
22096;BME280;24083;55.670;37.568;2023-05-20T04:32:16;99975.69;;;14.08;nan
22096;BME280;24083;55.670;37.568;2023-05-20T04:34:43;99973.47;;;13.82;nan
22096;BME280;24083;55.670;37.568;2023-05-20T04:37:26;99964.66;;;14.72;nan
22096;BME280;24083;55.670;37.568;2023-05-20T04:43:14;99959.53;;;15.20;nan
22096;BME280;24083;55.670;37.568;2023-05-20T04:45:44;99966.44;;;14.72;nan
22096;BME280;24083;55.670;37.568;2023-05-20T04:48:12;99967.94;;;13.88;nan
22096;BME280;24083;55.670;37.568;2023-05-20T04:53:32;99960.50;;;16.59;nan
22096;BME280;24083;55.670;37.568;2023-05-20T04:56:00;99962.94;;;15.86;nan
22096;BME280;24083;55.670;37.568;2023-05-20T04:58:35;99970.50;;;16.97;nan
22096;BME280;24083;55.670;37.568;2023-05-20T05:01:02;99966.41;;;16.17;nan
22096;BME280;24083;55.670;37.568;2023-05-20T05:03:28;99968.63;;;14.97;nan
22096;BME280;24083;55.670;37.568;2023-05-20T05:05:58;99966.97;;;15.28;nan
22096;BME280;24083;55.670;37.568;2023-05-20T05:14:28;99970.97;;;15.19;nan
22096;BME280;24083;55.670;37.568;2023-05-20T05:19:50;99955.19;;;15.19;nan
22096;BME280;24083;55.670;37.568;2023-05-20T05:22:20;99960.53;;;15.98;nan
22096;BME280;24083;55.670;37.568;2023-05-20T05:24:52;99951.31;;;17.24;nan
22096;BME280;24083;55.670;37.568;2023-05-20T05:27:23;99942.91;;;17.32;nan
22096;BME280;24083;55.670;37.568;2023-05-20T05:29:49;99961.81;;;16.66;nan
22096;BME280;24083;55.670;37.568;2023-05-20T05:32:16;99947.66;;;18.09;nan
22096;BME280;24083;55.670;37.568;2023-05-20T05:34:42;99941.81;;;19.09;nan
22096;BME280;24083;55.670;37.568;2023-05-20T05:37:09;99942.66;;;17.08;nan
22096;BME280;24083;55.670;37.568;2023-05-20T05:39:36;99931.13;;;16.22;nan
22096;BME280;24083;55.670;37.568;2023-05-20T05:42:03;99942.53;;;16.06;nan
22096;BME280;24083;55.670;37.568;2023-05-20T05:44:42;99942.31;;;17.83;nan
22096;BME280;24083;55.670;37.568;2023-05-20T05:47:10;99944.28;;;17.52;nan
22096;BME280;24083;55.670;37.568;2023-05-20T05:49:43;99942.66;;;17.64;nan
22096;BME280;24083;55.670;37.568;2023-05-20T05:55:03;99938.59;;;17.31;nan
22096;BME280;24083;55.670;37.568;2023-05-20T05:57:30;99939.00;;;18.07;nan
22096;BME280;24083;55.670;37.568;2023-05-20T05:59:56;99935.47;;;18.34;nan
22096;BME280;24083;55.670;37.568;2023-05-20T06:04:53;99946.88;;;17.67;nan
22096;BME280;24083;55.670;37.568;2023-05-20T06:07:21;99942.25;;;18.51;nan
22096;BME280;24083;55.670;37.568;2023-05-20T06:09:47;99951.47;;;16.63;nan
22096;BME280;24083;55.670;37.568;2023-05-20T06:12:13;99948.69;;;16.81;nan
22096;BME280;24083;55.670;37.568;2023-05-20T06:14:38;99952.19;;;17.52;nan
22096;BME280;24083;55.670;37.568;2023-05-20T06:17:06;99940.31;;;19.18;nan
22096;BME280;24083;55.670;37.568;2023-05-20T06:22:55;99941.38;;;18.24;nan
22096;BME280;24083;55.670;37.568;2023-05-20T06:25:24;99947.53;;;17.70;nan
22096;BME280;24083;55.670;37.568;2023-05-20T06:28:15;99950.00;;;17.17;nan
22096;BME280;24083;55.670;37.568;2023-05-20T06:30:42;99954.22;;;16.90;nan
22096;BME280;24083;55.670;37.568;2023-05-20T06:33:10;99958.34;;;15.42;nan
22096;BME280;24083;55.670;37.568;2023-05-20T06:38:41;99955.44;;;16.85;nan
22096;BME280;24083;55.670;37.568;2023-05-20T06:41:11;99965.38;;;15.73;nan
22096;BME280;24083;55.670;37.568;2023-05-20T06:43:40;99952.56;;;15.51;nan
22096;BME280;24083;55.670;37.568;2023-05-20T06:46:32;99968.00;;;16.51;nan
22096;BME280;24083;55.670;37.568;2023-05-20T06:52:56;99942.00;;;17.88;nan
22096;BME280;24083;55.670;37.568;2023-05-20T06:55:39;99944.06;;;18.50;nan
22096;BME280;24083;55.670;37.568;2023-05-20T06:58:06;99949.25;;;17.29;nan
22096;BME280;24083;55.670;37.568;2023-05-20T07:00:36;99944.75;;;17.86;nan
22096;BME280;24083;55.670;37.568;2023-05-20T07:03:04;99941.00;;;17.76;nan
22096;BME280;24083;55.670;37.568;2023-05-20T07:07:59;99972.06;;;16.56;nan
22096;BME280;24083;55.670;37.568;2023-05-20T07:15:28;99948.31;;;18.00;nan
22096;BME280;24083;55.670;37.568;2023-05-20T07:17:55;99952.50;;;17.75;nan
22096;BME280;24083;55.670;37.568;2023-05-20T07:20:24;99942.56;;;16.95;nan
22096;BME280;24083;55.670;37.568;2023-05-20T07:22:56;99931.75;;;16.70;nan
22096;BME280;24083;55.670;37.568;2023-05-20T07:25:39;99946.44;;;16.89;nan
22096;BME280;24083;55.670;37.568;2023-05-20T07:38:42;99938.09;;;19.24;nan
22096;BME280;24083;55.670;37.568;2023-05-20T07:41:12;99941.81;;;18.44;nan
22096;BME280;24083;55.670;37.568;2023-05-20T08:01:52;99912.31;;;19.88;nan
22096;BME280;24083;55.670;37.568;2023-05-20T08:04:20;99906.31;;;19.37;nan
22096;BME280;24083;55.670;37.568;2023-05-20T08:07:05;99904.09;;;21.19;nan
22096;BME280;24083;55.670;37.568;2023-05-20T08:13:52;99909.84;;;19.25;nan
22096;BME280;24083;55.670;37.568;2023-05-20T08:16:20;99905.97;;;20.26;nan
22096;BME280;24083;55.670;37.568;2023-05-20T08:25:41;99903.09;;;20.41;nan
22096;BME280;24083;55.670;37.568;2023-05-20T08:35:03;99904.66;;;18.60;nan
22096;BME280;24083;55.670;37.568;2023-05-20T09:05:00;99903.44;;;19.65;nan
22096;BME280;24083;55.670;37.568;2023-05-20T09:14:17;99907.47;;;20.53;nan
22096;BME280;24083;55.670;37.568;2023-05-20T09:16:49;99911.25;;;19.91;nan
22096;BME280;24083;55.670;37.568;2023-05-20T09:19:20;99912.19;;;19.54;nan
22096;BME280;24083;55.670;37.568;2023-05-20T09:21:58;99906.13;;;21.16;nan
22096;BME280;24083;55.670;37.568;2023-05-20T09:31:00;99910.34;;;19.30;nan
22096;BME280;24083;55.670;37.568;2023-05-20T09:39:33;99934.44;;;18.49;nan
22096;BME280;24083;55.670;37.568;2023-05-20T09:42:21;99928.03;;;19.17;nan
22096;BME280;24083;55.670;37.568;2023-05-20T09:44:58;99924.41;;;19.92;nan
22096;BME280;24083;55.670;37.568;2023-05-20T09:47:34;99923.00;;;18.88;nan
22096;BME280;24083;55.670;37.568;2023-05-20T09:50:08;99929.69;;;19.06;nan
22096;BME280;24083;55.670;37.568;2023-05-20T09:52:43;99924.81;;;19.00;nan
22096;BME280;24083;55.670;37.568;2023-05-20T09:55:09;99918.69;;;19.61;nan
22096;BME280;24083;55.670;37.568;2023-05-20T09:57:36;99920.84;;;20.05;nan
22096;BME280;24083;55.670;37.568;2023-05-20T10:00:28;99926.28;;;19.04;nan
22096;BME280;24083;55.670;37.568;2023-05-20T10:08:52;99939.06;;;18.59;nan
22096;BME280;24083;55.670;37.568;2023-05-20T10:17:16;99928.28;;;19.75;nan
22096;BME280;24083;55.670;37.568;2023-05-20T10:19:56;99926.09;;;19.07;nan
22096;BME280;24083;55.670;37.568;2023-05-20T10:22:32;99937.13;;;17.82;nan
22096;BME280;24083;55.670;37.568;2023-05-20T10:28:06;99945.94;;;18.74;nan
22096;BME280;24083;55.670;37.568;2023-05-20T10:30:34;99938.41;;;19.20;nan
22096;BME280;24083;55.670;37.568;2023-05-20T10:33:04;99940.09;;;19.21;nan
22096;BME280;24083;55.670;37.568;2023-05-20T10:35:31;99947.84;;;18.72;nan
22096;BME280;24083;55.670;37.568;2023-05-20T10:38:10;99937.91;;;19.76;nan
22096;BME280;24083;55.670;37.568;2023-05-20T10:40:39;99954.19;;;17.34;nan
22096;BME280;24083;55.670;37.568;2023-05-20T10:43:09;99946.63;;;18.12;nan
22096;BME280;24083;55.670;37.568;2023-05-20T10:51:46;99937.22;;;17.80;nan
22096;BME280;24083;55.670;37.568;2023-05-20T10:58:40;99939.06;;;18.33;nan
22096;BME280;24083;55.670;37.568;2023-05-20T11:01:07;99950.66;;;18.17;nan
22096;BME280;24083;55.670;37.568;2023-05-20T11:10:08;99928.94;;;18.78;nan
22096;BME280;24083;55.670;37.568;2023-05-20T11:12:46;99931.66;;;18.64;nan
22096;BME280;24083;55.670;37.568;2023-05-20T11:15:21;99941.28;;;18.65;nan
22096;BME280;24083;55.670;37.568;2023-05-20T11:21:08;99938.13;;;19.73;nan
22096;BME280;24083;55.670;37.568;2023-05-20T11:23:42;99943.88;;;18.13;nan
22096;BME280;24083;55.670;37.568;2023-05-20T11:26:12;99948.47;;;18.37;nan
22096;BME280;24083;55.670;37.568;2023-05-20T11:28:41;99947.84;;;18.72;nan
22096;BME280;24083;55.670;37.568;2023-05-20T11:31:09;99949.22;;;18.39;nan
22096;BME280;24083;55.670;37.568;2023-05-20T11:33:42;99951.31;;;17.66;nan
22096;BME280;24083;55.670;37.568;2023-05-20T11:36:14;99957.31;;;17.95;nan
22096;BME280;24083;55.670;37.568;2023-05-20T11:44:45;99961.72;;;17.82;nan
22096;BME280;24083;55.670;37.568;2023-05-20T11:47:27;99945.88;;;17.13;nan
22096;BME280;24083;55.670;37.568;2023-05-20T12:02:22;99956.59;;;18.60;nan
22096;BME280;24083;55.670;37.568;2023-05-20T12:05:41;99951.53;;;18.44;nan
22096;BME280;24083;55.670;37.568;2023-05-20T12:11:34;99959.50;;;17.61;nan
22096;BME280;24083;55.670;37.568;2023-05-20T12:21:13;99949.13;;;19.42;nan
22096;BME280;24083;55.670;37.568;2023-05-20T12:24:44;99942.88;;;20.16;nan
22096;BME280;24083;55.670;37.568;2023-05-20T12:30:46;99934.63;;;20.33;nan
22096;BME280;24083;55.670;37.568;2023-05-20T12:33:15;99925.00;;;19.96;nan
22096;BME280;24083;55.670;37.568;2023-05-20T12:39:08;99936.06;;;19.28;nan
22096;BME280;24083;55.670;37.568;2023-05-20T12:41:43;99926.75;;;21.56;nan
22096;BME280;24083;55.670;37.568;2023-05-20T12:44:45;99935.75;;;20.06;nan
22096;BME280;24083;55.670;37.568;2023-05-20T12:47:12;99927.91;;;19.31;nan
22096;BME280;24083;55.670;37.568;2023-05-20T12:49:38;99930.91;;;19.13;nan
22096;BME280;24083;55.670;37.568;2023-05-20T12:52:19;99933.75;;;20.21;nan
22096;BME280;24083;55.670;37.568;2023-05-20T12:54:46;99918.44;;;19.53;nan
22096;BME280;24083;55.670;37.568;2023-05-20T13:00:14;99924.69;;;19.02;nan
22096;BME280;24083;55.670;37.568;2023-05-20T13:05:29;99921.06;;;18.12;nan
22096;BME280;24083;55.670;37.568;2023-05-20T13:07:58;99923.44;;;19.07;nan
22096;BME280;24083;55.670;37.568;2023-05-20T13:10:24;99928.63;;;19.33;nan
22096;BME280;24083;55.670;37.568;2023-05-20T13:12:52;99923.06;;;19.73;nan
22096;BME280;24083;55.670;37.568;2023-05-20T13:15:21;99932.97;;;18.45;nan
22096;BME280;24083;55.670;37.568;2023-05-20T13:17:57;99931.34;;;17.89;nan
22096;BME280;24083;55.670;37.568;2023-05-20T13:26:07;99936.22;;;17.95;nan
22096;BME280;24083;55.670;37.568;2023-05-20T13:28:34;99931.03;;;17.94;nan
22096;BME280;24083;55.670;37.568;2023-05-20T13:31:15;99944.34;;;18.46;nan
22096;BME280;24083;55.670;37.568;2023-05-20T13:33:43;99948.78;;;18.58;nan
22096;BME280;24083;55.670;37.568;2023-05-20T13:39:47;99951.00;;;19.53;nan
22096;BME280;24083;55.670;37.568;2023-05-20T13:42:17;99944.13;;;18.62;nan
22096;BME280;24083;55.670;37.568;2023-05-20T13:44:49;99951.41;;;19.60;nan
22096;BME280;24083;55.670;37.568;2023-05-20T13:47:15;99952.06;;;19.75;nan
22096;BME280;24083;55.670;37.568;2023-05-20T13:56:02;99946.03;;;19.11;nan
22096;BME280;24083;55.670;37.568;2023-05-20T13:58:32;99947.19;;;18.94;nan
22096;BME280;24083;55.670;37.568;2023-05-20T14:01:00;99947.72;;;18.61;nan
22096;BME280;24083;55.670;37.568;2023-05-20T14:03:35;99939.59;;;19.40;nan
22096;BME280;24083;55.670;37.568;2023-05-20T14:09:31;99940.03;;;19.95;nan
22096;BME280;24083;55.670;37.568;2023-05-20T14:18:59;99940.59;;;20.12;nan
22096;BME280;24083;55.670;37.568;2023-05-20T14:21:30;99942.88;;;18.67;nan
22096;BME280;24083;55.670;37.568;2023-05-20T14:24:12;99936.63;;;17.62;nan
22096;BME280;24083;55.670;37.568;2023-05-20T14:26:38;99935.66;;;19.08;nan
22096;BME280;24083;55.670;37.568;2023-05-20T14:29:04;99938.91;;;20.11;nan
22096;BME280;24083;55.670;37.568;2023-05-20T14:31:37;99937.81;;;19.03;nan
22096;BME280;24083;55.670;37.568;2023-05-20T14:37:13;99927.91;;;20.04;nan
22096;BME280;24083;55.670;37.568;2023-05-20T14:40:22;99943.53;;;18.97;nan
22096;BME280;24083;55.670;37.568;2023-05-20T14:42:50;99926.56;;;18.09;nan
22096;BME280;24083;55.670;37.568;2023-05-20T14:45:20;99934.84;;;18.69;nan
22096;BME280;24083;55.670;37.568;2023-05-20T14:56:10;99934.00;;;18.30;nan
22096;BME280;24083;55.670;37.568;2023-05-20T14:58:45;99934.41;;;18.75;nan
22096;BME280;24083;55.670;37.568;2023-05-20T15:04:11;99930.63;;;18.28;nan
22096;BME280;24083;55.670;37.568;2023-05-20T15:06:40;99933.69;;;17.94;nan
22096;BME280;24083;55.670;37.568;2023-05-20T15:16:39;99916.16;;;19.35;nan
22096;BME280;24083;55.670;37.568;2023-05-20T15:19:43;99912.63;;;19.72;nan
22096;BME280;24083;55.670;37.568;2023-05-20T15:22:11;99918.56;;;18.75;nan
22096;BME280;24083;55.670;37.568;2023-05-20T15:24:41;99918.91;;;18.32;nan
22096;BME280;24083;55.670;37.568;2023-05-20T15:27:09;99910.44;;;21.40;nan
22096;BME280;24083;55.670;37.568;2023-05-20T15:29:39;99905.31;;;20.81;nan
22096;BME280;24083;55.670;37.568;2023-05-20T15:32:11;99913.47;;;20.44;nan
22096;BME280;24083;55.670;37.568;2023-05-20T15:40:46;99888.47;;;23.17;nan
22096;BME280;24083;55.670;37.568;2023-05-20T15:43:31;99886.41;;;22.06;nan
22096;BME280;24083;55.670;37.568;2023-05-20T15:46:55;99877.06;;;21.58;nan
22096;BME280;24083;55.670;37.568;2023-05-20T15:55:29;99891.53;;;20.42;nan
22096;BME280;24083;55.670;37.568;2023-05-20T15:57:56;99899.41;;;19.96;nan
22096;BME280;24083;55.670;37.568;2023-05-20T16:03:15;99890.41;;;20.10;nan
22096;BME280;24083;55.670;37.568;2023-05-20T16:05:42;99891.84;;;19.79;nan
22096;BME280;24083;55.670;37.568;2023-05-20T16:08:11;99893.03;;;18.63;nan
22096;BME280;24083;55.670;37.568;2023-05-20T16:13:08;99890.31;;;19.39;nan
22096;BME280;24083;55.670;37.568;2023-05-20T16:15:34;99892.56;;;18.95;nan
22096;BME280;24083;55.670;37.568;2023-05-20T16:18:03;99893.97;;;19.73;nan
22096;BME280;24083;55.670;37.568;2023-05-20T16:20:32;99889.66;;;18.35;nan
22096;BME280;24083;55.670;37.568;2023-05-20T16:22:59;99893.03;;;18.63;nan
22096;BME280;24083;55.670;37.568;2023-05-20T16:25:28;99896.19;;;18.68;nan
22096;BME280;24083;55.670;37.568;2023-05-20T16:31:32;99872.44;;;19.18;nan
22096;BME280;24083;55.670;37.568;2023-05-20T16:33:59;99885.28;;;17.68;nan
22096;BME280;24083;55.670;37.568;2023-05-20T16:36:26;99887.94;;;18.08;nan
22096;BME280;24083;55.670;37.568;2023-05-20T16:38:51;99893.22;;;18.60;nan
22096;BME280;24083;55.670;37.568;2023-05-20T16:41:17;99889.28;;;17.60;nan
22096;BME280;24083;55.670;37.568;2023-05-20T16:43:53;99888.06;;;17.79;nan
22096;BME280;24083;55.670;37.568;2023-05-20T16:46:19;99898.13;;;17.59;nan
22096;BME280;24083;55.670;37.568;2023-05-20T16:51:28;99897.81;;;17.91;nan
22096;BME280;24083;55.670;37.568;2023-05-20T16:53:55;99906.31;;;16.26;nan
22096;BME280;24083;55.670;37.568;2023-05-20T17:02:15;99903.53;;;16.72;nan
22096;BME280;24083;55.670;37.568;2023-05-20T17:04:41;99919.97;;;16.02;nan
22096;BME280;24083;55.670;37.568;2023-05-20T17:09:43;99910.47;;;16.30;nan
22096;BME280;24083;55.670;37.568;2023-05-20T17:12:10;99917.84;;;16.23;nan
22096;BME280;24083;55.670;37.568;2023-05-20T17:14:37;99915.19;;;16.97;nan
22096;BME280;24083;55.670;37.568;2023-05-20T17:17:02;99913.13;;;16.88;nan
22096;BME280;24083;55.670;37.568;2023-05-20T17:19:30;99917.47;;;17.03;nan
22096;BME280;24083;55.670;37.568;2023-05-20T17:21:59;99918.59;;;16.85;nan
22096;BME280;24083;55.670;37.568;2023-05-20T17:24:26;99923.28;;;17.23;nan
22096;BME280;24083;55.670;37.568;2023-05-20T17:26:52;99920.22;;;16.28;nan
22096;BME280;24083;55.670;37.568;2023-05-20T17:31:53;99920.81;;;16.47;nan
22096;BME280;24083;55.670;37.568;2023-05-20T17:34:20;99926.03;;;16.19;nan
22096;BME280;24083;55.670;37.568;2023-05-20T17:36:48;99922.50;;;15.41;nan
22096;BME280;24083;55.670;37.568;2023-05-20T17:44:40;99930.84;;;15.80;nan
22096;BME280;24083;55.670;37.568;2023-05-20T17:47:13;99919.63;;;16.08;nan
22096;BME280;24083;55.670;37.568;2023-05-20T17:49:41;99932.06;;;15.74;nan
22096;BME280;24083;55.670;37.568;2023-05-20T17:52:08;99919.00;;;15.56;nan
22096;BME280;24083;55.670;37.568;2023-05-20T17:57:19;99940.16;;;14.89;nan
22096;BME280;24083;55.670;37.568;2023-05-20T17:59:46;99934.56;;;14.95;nan
22096;BME280;24083;55.670;37.568;2023-05-20T18:02:14;99945.03;;;15.29;nan
22096;BME280;24083;55.670;37.568;2023-05-20T18:04:47;99934.22;;;14.86;nan
22096;BME280;24083;55.670;37.568;2023-05-20T18:07:18;99944.59;;;15.05;nan
22096;BME280;24083;55.670;37.568;2023-05-20T18:09:45;99925.97;;;15.25;nan
22096;BME280;24083;55.670;37.568;2023-05-20T18:12:12;99959.59;;;13.79;nan
22096;BME280;24083;55.670;37.568;2023-05-20T18:14:39;99968.97;;;13.66;nan
22096;BME280;24083;55.670;37.568;2023-05-20T18:17:05;99932.59;;;13.21;nan
22096;BME280;24083;55.670;37.568;2023-05-20T18:19:33;99940.22;;;14.19;nan
22096;BME280;24083;55.670;37.568;2023-05-20T18:22:07;99934.78;;;13.87;nan
22096;BME280;24083;55.670;37.568;2023-05-20T18:24:35;99932.13;;;13.88;nan
22096;BME280;24083;55.670;37.568;2023-05-20T18:27:01;99937.88;;;14.65;nan
22096;BME280;24083;55.670;37.568;2023-05-20T18:29:32;99930.78;;;15.49;nan
22096;BME280;24083;55.670;37.568;2023-05-20T18:31:59;99919.38;;;15.18;nan
22096;BME280;24083;55.670;37.568;2023-05-20T18:34:25;99922.72;;;15.84;nan
22096;BME280;24083;55.670;37.568;2023-05-20T18:36:52;99914.03;;;15.36;nan
22096;BME280;24083;55.670;37.568;2023-05-20T18:39:18;99915.25;;;15.77;nan
22096;BME280;24083;55.670;37.568;2023-05-20T18:41:45;99912.56;;;16.39;nan
22096;BME280;24083;55.670;37.568;2023-05-20T18:44:12;99916.06;;;16.09;nan
22096;BME280;24083;55.670;37.568;2023-05-20T18:46:38;99910.97;;;16.06;nan
22096;BME280;24083;55.670;37.568;2023-05-20T18:49:21;99907.25;;;15.32;nan
22096;BME280;24083;55.670;37.568;2023-05-20T18:51:47;99906.66;;;16.65;nan
22096;BME280;24083;55.670;37.568;2023-05-20T18:54:21;99912.38;;;15.97;nan
22096;BME280;24083;55.670;37.568;2023-05-20T18:56:47;99898.22;;;16.14;nan
22096;BME280;24083;55.670;37.568;2023-05-20T18:59:12;99887.38;;;16.79;nan
22096;BME280;24083;55.670;37.568;2023-05-20T19:01:41;99889.72;;;15.16;nan
22096;BME280;24083;55.670;37.568;2023-05-20T19:04:07;99891.44;;;16.10;nan
22096;BME280;24083;55.670;37.568;2023-05-20T19:06:37;99888.41;;;16.02;nan
22096;BME280;24083;55.670;37.568;2023-05-20T19:09:11;99891.31;;;16.71;nan
22096;BME280;24083;55.670;37.568;2023-05-20T19:11:39;99890.66;;;16.39;nan
22096;BME280;24083;55.670;37.568;2023-05-20T19:14:09;99886.78;;;15.69;nan